Date,TemperatureHighF,TemperatureAvgF,TemperatureLowF,DewpointHighF,DewpointAvgF,DewpointLowF,HumidityHigh,HumidityAvg,HumidityLow,PressureMaxIn,PressureMinIn,WindSpeedMaxMPH,WindSpeedAvgMPH,GustSpeedMaxMPH,PrecipitationSumIn
2013-10-1,60.1,52.7,43.7,49.3,45.2,40.1,90,76,58,29.53,29.44,8,1,8,0.00
2013-10-2,59.0,55.8,53.2,55.9,51.6,46.9,96,86,79,29.47,29.39,7,1,7,0.55
2013-10-3,65.7,60.1,57.0,63.1,58.5,55.9,97,94,86,29.42,29.15,6,1,6,0.78
2013-10-4,61.7,58.2,54.1,59.4,56.5,52.2,97,94,88,29.47,29.15,6,1,6,0.13
2013-10-5,62.2,55.8,51.3,55.6,52.0,49.4,95,87,72,29.74,29.47,6,1,6,0.00
2013-10-6,63.3,58.3,54.3,60.3,55.8,52.0,96,91,84,29.74,29.68,8,1,8,0.00
2013-10-7,69.3,61.5,58.1,61.0,57.7,55.4,96,88,70,29.74,29.62,10,2,10,0.04
2013-10-8,60.6,56.0,50.4,57.7,52.2,45.4,93,87,78,29.83,29.62,8,2,8,0.00
2013-10-9,52.0,48.3,41.7,47.3,41.0,29.6,94,77,59,29.83,29.62,9,2,9,0.08
2013-10-10,52.9,43.4,34.7,36.2,31.4,-99.9,85,64,48,30.09,29.83,8,2,8,0.00
2013-10-11,52.0,45.4,36.9,41.8,37.4,29.9,83,74,66,30.18,30.09,8,1,8,0.00
2013-10-12,54.5,49.7,46.6,47.0,43.6,40.0,91,80,66,30.15,29.92,7,1,7,0.00
2013-10-13,54.0,49.5,45.3,48.5,45.3,42.3,94,86,67,29.92,29.68,8,1,8,0.00
2013-10-14,55.4,50.0,45.5,49.4,46.2,43.4,96,87,72,29.68,29.56,5,0,5,0.00
2013-10-15,55.6,48.9,38.8,48.1,45.1,37.4,95,87,72,29.65,29.56,6,0,6,0.00
2013-10-16,53.1,44.2,34.2,47.4,41.9,33.4,98,92,75,29.65,29.24,6,0,6,0.41
2013-10-17,55.9,49.8,45.5,53.9,48.6,44.7,97,96,92,29.62,29.30,5,0,5,0.30
2013-10-18,52.9,49.1,42.1,52.1,47.9,41.6,98,96,88,29.65,29.30,6,0,6,0.33
2013-10-19,59.7,53.8,49.5,58.0,52.7,48.9,98,96,93,29.30,29.06,6,1,6,0.83
2013-10-20,57.0,51.8,47.1,55.2,50.9,46.6,98,97,90,29.09,29.03,5,0,5,0.20
2013-10-21,56.5,52.5,48.9,55.7,51.4,47.9,98,96,92,29.15,28.88,4,0,4,0.25
2013-10-22,57.0,55.8,54.5,56.5,55.2,53.9,98,98,97,28.88,28.77,5,0,5,0.50
2013-10-23,56.1,47.5,43.9,50.2,40.6,-99.9,91,80,70,29.24,28.77,11,3,11,0.04
2013-10-24,56.1,47.9,43.3,49.9,44.4,41.2,95,88,73,29.53,29.24,8,1,8,0.00
2013-10-25,59.9,51.9,45.1,57.1,49.9,42.8,96,93,84,29.47,28.94,6,1,6,0.21
2013-10-26,54.1,50.7,43.7,52.6,48.4,42.9,97,92,77,29.09,28.77,11,1,11,0.20
2013-10-27,53.6,47.9,43.0,49.8,46.4,42.4,98,94,85,28.80,28.47,11,2,11,0.50
2013-10-28,50.9,47.2,43.2,48.7,45.4,41.8,97,94,87,29.00,28.50,6,1,6,0.05
2013-10-29,52.0,43.9,39.2,45.5,40.8,37.3,95,89,75,29.56,29.00,8,1,8,0.00
2013-10-30,52.9,44.5,37.0,50.6,42.9,36.0,98,94,83,29.59,29.27,8,1,8,0.20
2013-10-31,53.1,44.7,39.7,48.4,42.9,39.2,98,93,79,29.47,29.24,10,2,10,0.13